sensor_id;sensor_type;location;lat;lon;timestamp;temperature;humidity
3308;DHT22;1666;48.898;9.182;2024-03-25T00:01:48;6.20;1.00
3308;DHT22;1666;48.898;9.182;2024-03-25T00:04:15;6.20;1.00
3308;DHT22;1666;48.898;9.182;2024-03-25T00:06:41;6.20;1.00
3308;DHT22;1666;48.898;9.182;2024-03-25T00:09:10;6.20;1.00
3308;DHT22;1666;48.898;9.182;2024-03-25T00:11:37;6.20;1.00
3308;DHT22;1666;48.898;9.182;2024-03-25T00:14:03;6.10;1.00
3308;DHT22;1666;48.898;9.182;2024-03-25T00:16:30;6.10;1.00
3308;DHT22;1666;48.898;9.182;2024-03-25T00:18:56;6.10;1.00
3308;DHT22;1666;48.898;9.182;2024-03-25T00:21:23;6.10;1.00
3308;DHT22;1666;48.898;9.182;2024-03-25T00:23:49;6.10;1.00
3308;DHT22;1666;48.898;9.182;2024-03-25T00:26:18;6.10;1.00
3308;DHT22;1666;48.898;9.182;2024-03-25T00:28:44;6.10;1.00
3308;DHT22;1666;48.898;9.182;2024-03-25T00:31:11;6.10;1.00
3308;DHT22;1666;48.898;9.182;2024-03-25T00:33:37;6.00;1.00
3308;DHT22;1666;48.898;9.182;2024-03-25T00:36:04;6.00;1.00
3308;DHT22;1666;48.898;9.182;2024-03-25T00:38:31;6.00;1.00
3308;DHT22;1666;48.898;9.182;2024-03-25T00:40:57;6.00;1.00
3308;DHT22;1666;48.898;9.182;2024-03-25T00:43:26;6.00;1.00
3308;DHT22;1666;48.898;9.182;2024-03-25T00:45:53;6.00;1.00
3308;DHT22;1666;48.898;9.182;2024-03-25T00:48:19;6.00;1.00
3308;DHT22;1666;48.898;9.182;2024-03-25T00:50:45;6.00;1.00
3308;DHT22;1666;48.898;9.182;2024-03-25T00:53:11;5.90;1.00
3308;DHT22;1666;48.898;9.182;2024-03-25T00:55:38;5.90;1.00
3308;DHT22;1666;48.898;9.182;2024-03-25T00:58:04;5.90;1.00
3308;DHT22;1666;48.898;9.182;2024-03-25T01:00:33;5.90;1.00
3308;DHT22;1666;48.898;9.182;2024-03-25T01:03:00;5.90;1.00
3308;DHT22;1666;48.898;9.182;2024-03-25T01:05:26;5.90;1.00
3308;DHT22;1666;48.898;9.182;2024-03-25T01:07:52;5.90;1.00
3308;DHT22;1666;48.898;9.182;2024-03-25T01:10:19;5.90;1.00
3308;DHT22;1666;48.898;9.182;2024-03-25T01:12:45;5.90;1.00
3308;DHT22;1666;48.898;9.182;2024-03-25T01:15:11;5.80;1.00
3308;DHT22;1666;48.898;9.182;2024-03-25T01:17:40;5.80;1.00
3308;DHT22;1666;48.898;9.182;2024-03-25T01:20:07;5.80;1.00
3308;DHT22;1666;48.898;9.182;2024-03-25T01:22:34;5.80;1.00
3308;DHT22;1666;48.898;9.182;2024-03-25T01:25:01;5.80;1.00
3308;DHT22;1666;48.898;9.182;2024-03-25T01:27:27;5.80;1.00
3308;DHT22;1666;48.898;9.182;2024-03-25T01:29:54;5.80;1.00
3308;DHT22;1666;48.898;9.182;2024-03-25T01:32:20;5.70;1.00
3308;DHT22;1666;48.898;9.182;2024-03-25T01:34:49;5.70;1.00
3308;DHT22;1666;48.898;9.182;2024-03-25T01:37:15;5.70;1.00
3308;DHT22;1666;48.898;9.182;2024-03-25T01:39:41;5.70;1.00
3308;DHT22;1666;48.898;9.182;2024-03-25T01:42:08;5.70;1.00
3308;DHT22;1666;48.898;9.182;2024-03-25T01:44:34;5.70;1.00
3308;DHT22;1666;48.898;9.182;2024-03-25T01:47:01;5.60;1.00
3308;DHT22;1666;48.898;9.182;2024-03-25T01:49:27;5.60;1.00
3308;DHT22;1666;48.898;9.182;2024-03-25T01:51:57;5.60;1.00
3308;DHT22;1666;48.898;9.182;2024-03-25T01:54:24;5.50;1.00
3308;DHT22;1666;48.898;9.182;2024-03-25T01:56:51;5.50;1.00
3308;DHT22;1666;48.898;9.182;2024-03-25T01:59:18;5.40;1.00
3308;DHT22;1666;48.898;9.182;2024-03-25T02:01:46;5.40;1.00
3308;DHT22;1666;48.898;9.182;2024-03-25T02:04:14;5.40;1.00
3308;DHT22;1666;48.898;9.182;2024-03-25T02:06:41;5.40;1.00
3308;DHT22;1666;48.898;9.182;2024-03-25T02:09:12;5.40;1.00
3308;DHT22;1666;48.898;9.182;2024-03-25T02:11:39;5.40;1.00
3308;DHT22;1666;48.898;9.182;2024-03-25T02:14:07;5.30;1.00
3308;DHT22;1666;48.898;9.182;2024-03-25T02:16:33;5.30;1.00
3308;DHT22;1666;48.898;9.182;2024-03-25T02:19:00;5.30;1.00
3308;DHT22;1666;48.898;9.182;2024-03-25T02:21:26;5.30;1.00
3308;DHT22;1666;48.898;9.182;2024-03-25T02:23:53;5.20;1.00
3308;DHT22;1666;48.898;9.182;2024-03-25T02:26:24;5.20;1.00
3308;DHT22;1666;48.898;9.182;2024-03-25T02:28:51;5.20;1.00
3308;DHT22;1666;48.898;9.182;2024-03-25T02:31:17;5.20;1.00
3308;DHT22;1666;48.898;9.182;2024-03-25T02:33:44;5.20;1.00
3308;DHT22;1666;48.898;9.182;2024-03-25T02:36:10;5.30;1.00
3308;DHT22;1666;48.898;9.182;2024-03-25T02:38:37;5.30;1.00
3308;DHT22;1666;48.898;9.182;2024-03-25T02:41:03;5.30;1.00
3308;DHT22;1666;48.898;9.182;2024-03-25T02:43:33;5.40;1.00
3308;DHT22;1666;48.898;9.182;2024-03-25T02:46:00;5.50;1.00
3308;DHT22;1666;48.898;9.182;2024-03-25T02:48:26;5.60;1.00
3308;DHT22;1666;48.898;9.182;2024-03-25T02:50:52;5.60;1.00
3308;DHT22;1666;48.898;9.182;2024-03-25T02:53:19;5.60;1.00
3308;DHT22;1666;48.898;9.182;2024-03-25T02:55:45;5.70;1.00
3308;DHT22;1666;48.898;9.182;2024-03-25T02:58:11;5.70;1.00
3308;DHT22;1666;48.898;9.182;2024-03-25T03:00:40;5.70;1.00
3308;DHT22;1666;48.898;9.182;2024-03-25T03:03:07;5.70;1.00
3308;DHT22;1666;48.898;9.182;2024-03-25T03:05:33;5.70;1.00
3308;DHT22;1666;48.898;9.182;2024-03-25T03:07:59;5.70;1.00
3308;DHT22;1666;48.898;9.182;2024-03-25T03:10:25;5.70;1.00
3308;DHT22;1666;48.898;9.182;2024-03-25T03:12:52;5.70;1.00
3308;DHT22;1666;48.898;9.182;2024-03-25T03:15:18;5.70;1.00
3308;DHT22;1666;48.898;9.182;2024-03-25T03:17:47;5.70;1.00
3308;DHT22;1666;48.898;9.182;2024-03-25T03:20:14;5.70;1.00
3308;DHT22;1666;48.898;9.182;2024-03-25T03:22:40;5.70;1.00
3308;DHT22;1666;48.898;9.182;2024-03-25T03:25:07;5.70;1.00
3308;DHT22;1666;48.898;9.182;2024-03-25T03:27:34;5.60;1.00
3308;DHT22;1666;48.898;9.182;2024-03-25T03:30:00;5.70;1.00
3308;DHT22;1666;48.898;9.182;2024-03-25T03:32:26;5.60;1.00
3308;DHT22;1666;48.898;9.182;2024-03-25T03:34:55;5.70;1.00
3308;DHT22;1666;48.898;9.182;2024-03-25T03:37:21;5.60;1.00
3308;DHT22;1666;48.898;9.182;2024-03-25T03:39:48;5.60;1.00
3308;DHT22;1666;48.898;9.182;2024-03-25T03:42:14;5.60;1.00
3308;DHT22;1666;48.898;9.182;2024-03-25T03:44:40;5.60;1.00
3308;DHT22;1666;48.898;9.182;2024-03-25T03:47:07;5.60;1.00
3308;DHT22;1666;48.898;9.182;2024-03-25T03:49:33;5.60;1.00
3308;DHT22;1666;48.898;9.182;2024-03-25T03:52:03;5.60;1.00
3308;DHT22;1666;48.898;9.182;2024-03-25T03:54:29;5.60;1.00
3308;DHT22;1666;48.898;9.182;2024-03-25T03:56:55;5.60;1.00
3308;DHT22;1666;48.898;9.182;2024-03-25T03:59:22;5.50;1.00
3308;DHT22;1666;48.898;9.182;2024-03-25T04:01:48;5.60;1.00
3308;DHT22;1666;48.898;9.182;2024-03-25T04:04:14;5.50;1.00
3308;DHT22;1666;48.898;9.182;2024-03-25T04:06:41;5.50;1.00
3308;DHT22;1666;48.898;9.182;2024-03-25T04:09:10;5.50;1.00
3308;DHT22;1666;48.898;9.182;2024-03-25T04:11:36;5.50;1.00
3308;DHT22;1666;48.898;9.182;2024-03-25T04:14:02;5.60;1.00
3308;DHT22;1666;48.898;9.182;2024-03-25T04:16:29;5.50;1.00
3308;DHT22;1666;48.898;9.182;2024-03-25T04:18:56;5.50;1.00
3308;DHT22;1666;48.898;9.182;2024-03-25T04:21:22;5.50;1.00
3308;DHT22;1666;48.898;9.182;2024-03-25T04:23:49;5.50;1.00
3308;DHT22;1666;48.898;9.182;2024-03-25T04:26:18;5.50;1.00
3308;DHT22;1666;48.898;9.182;2024-03-25T04:28:44;5.50;1.00
3308;DHT22;1666;48.898;9.182;2024-03-25T04:31:11;5.40;1.00
3308;DHT22;1666;48.898;9.182;2024-03-25T04:33:37;5.40;1.00
3308;DHT22;1666;48.898;9.182;2024-03-25T04:36:04;5.40;1.00
3308;DHT22;1666;48.898;9.182;2024-03-25T04:38:30;5.50;1.00
3308;DHT22;1666;48.898;9.182;2024-03-25T04:40:56;5.40;1.00
3308;DHT22;1666;48.898;9.182;2024-03-25T04:43:25;5.40;1.00
3308;DHT22;1666;48.898;9.182;2024-03-25T04:45:52;5.30;1.00
3308;DHT22;1666;48.898;9.182;2024-03-25T04:48:18;5.30;1.00
3308;DHT22;1666;48.898;9.182;2024-03-25T04:50:44;5.30;1.00
3308;DHT22;1666;48.898;9.182;2024-03-25T04:53:13;5.20;1.00
3308;DHT22;1666;48.898;9.182;2024-03-25T04:55:39;5.20;1.00
3308;DHT22;1666;48.898;9.182;2024-03-25T04:58:06;5.10;1.00
3308;DHT22;1666;48.898;9.182;2024-03-25T05:00:35;5.10;1.00
3308;DHT22;1666;48.898;9.182;2024-03-25T05:03:01;5.00;1.00
3308;DHT22;1666;48.898;9.182;2024-03-25T05:05:27;5.00;1.00
3308;DHT22;1666;48.898;9.182;2024-03-25T05:07:53;4.90;1.00
3308;DHT22;1666;48.898;9.182;2024-03-25T05:10:20;4.80;1.00
3308;DHT22;1666;48.898;9.182;2024-03-25T05:12:46;4.80;1.00
3308;DHT22;1666;48.898;9.182;2024-03-25T05:15:13;4.80;1.00
3308;DHT22;1666;48.898;9.182;2024-03-25T05:17:42;4.70;1.00
3308;DHT22;1666;48.898;9.182;2024-03-25T05:20:10;4.60;1.00
3308;DHT22;1666;48.898;9.182;2024-03-25T05:22:36;4.50;1.00
3308;DHT22;1666;48.898;9.182;2024-03-25T05:25:03;4.50;1.00
3308;DHT22;1666;48.898;9.182;2024-03-25T05:27:29;4.50;1.00
3308;DHT22;1666;48.898;9.182;2024-03-25T05:29:56;4.40;1.00
3308;DHT22;1666;48.898;9.182;2024-03-25T05:32:22;4.40;1.00
3308;DHT22;1666;48.898;9.182;2024-03-25T05:34:51;4.40;1.00
3308;DHT22;1666;48.898;9.182;2024-03-25T05:37:17;4.50;1.00
3308;DHT22;1666;48.898;9.182;2024-03-25T05:39:44;4.50;1.00
3308;DHT22;1666;48.898;9.182;2024-03-25T05:42:10;4.40;1.00
3308;DHT22;1666;48.898;9.182;2024-03-25T05:44:36;4.50;1.00
3308;DHT22;1666;48.898;9.182;2024-03-25T05:47:03;4.50;1.00
3308;DHT22;1666;48.898;9.182;2024-03-25T05:49:29;4.50;1.00
3308;DHT22;1666;48.898;9.182;2024-03-25T05:51:58;4.50;1.00
3308;DHT22;1666;48.898;9.182;2024-03-25T05:54:24;4.50;1.00
3308;DHT22;1666;48.898;9.182;2024-03-25T05:56:51;4.60;1.00
3308;DHT22;1666;48.898;9.182;2024-03-25T05:59:17;4.60;1.00
3308;DHT22;1666;48.898;9.182;2024-03-25T06:01:43;4.60;1.00
3308;DHT22;1666;48.898;9.182;2024-03-25T06:04:10;4.60;1.00
3308;DHT22;1666;48.898;9.182;2024-03-25T06:06:36;4.50;1.00
3308;DHT22;1666;48.898;9.182;2024-03-25T06:09:05;4.50;1.00
3308;DHT22;1666;48.898;9.182;2024-03-25T06:11:31;4.60;1.00
3308;DHT22;1666;48.898;9.182;2024-03-25T06:13:59;4.70;1.00
3308;DHT22;1666;48.898;9.182;2024-03-25T06:16:25;4.90;1.00
3308;DHT22;1666;48.898;9.182;2024-03-25T06:18:52;4.80;1.00
3308;DHT22;1666;48.898;9.182;2024-03-25T06:21:18;5.00;1.00
3308;DHT22;1666;48.898;9.182;2024-03-25T06:23:45;5.10;1.00
3308;DHT22;1666;48.898;9.182;2024-03-25T06:26:14;5.20;1.00
3308;DHT22;1666;48.898;9.182;2024-03-25T06:28:42;5.40;1.00
3308;DHT22;1666;48.898;9.182;2024-03-25T06:31:08;5.50;1.00
3308;DHT22;1666;48.898;9.182;2024-03-25T06:33:50;5.60;1.00
3308;DHT22;1666;48.898;9.182;2024-03-25T06:36:31;5.70;1.00
3308;DHT22;1666;48.898;9.182;2024-03-25T06:38:57;5.80;1.00
3308;DHT22;1666;48.898;9.182;2024-03-25T06:41:26;5.90;1.00
3308;DHT22;1666;48.898;9.182;2024-03-25T06:43:54;6.00;1.00
3308;DHT22;1666;48.898;9.182;2024-03-25T06:46:20;6.20;1.00
3308;DHT22;1666;48.898;9.182;2024-03-25T06:48:46;6.10;1.00
3308;DHT22;1666;48.898;9.182;2024-03-25T06:51:13;6.20;1.00
3308;DHT22;1666;48.898;9.182;2024-03-25T06:53:39;6.30;1.00
3308;DHT22;1666;48.898;9.182;2024-03-25T06:56:05;6.20;1.00
3308;DHT22;1666;48.898;9.182;2024-03-25T06:58:34;6.30;1.00
3308;DHT22;1666;48.898;9.182;2024-03-25T07:01:04;6.40;1.00
3308;DHT22;1666;48.898;9.182;2024-03-25T07:03:31;6.50;1.00
3308;DHT22;1666;48.898;9.182;2024-03-25T07:05:58;6.60;1.00
3308;DHT22;1666;48.898;9.182;2024-03-25T07:08:26;6.70;1.00
3308;DHT22;1666;48.898;9.182;2024-03-25T07:10:53;6.80;1.00
3308;DHT22;1666;48.898;9.182;2024-03-25T07:13:20;6.90;1.00
3308;DHT22;1666;48.898;9.182;2024-03-25T07:15:50;6.90;1.00
3308;DHT22;1666;48.898;9.182;2024-03-25T07:18:17;7.00;1.00
3308;DHT22;1666;48.898;9.182;2024-03-25T07:20:44;7.20;1.00
3308;DHT22;1666;48.898;9.182;2024-03-25T07:23:10;7.10;1.00
3308;DHT22;1666;48.898;9.182;2024-03-25T07:25:37;7.00;1.00
3308;DHT22;1666;48.898;9.182;2024-03-25T07:28:04;7.00;1.00
3308;DHT22;1666;48.898;9.182;2024-03-25T07:30:30;7.20;1.00
3308;DHT22;1666;48.898;9.182;2024-03-25T07:33:00;7.30;1.00
3308;DHT22;1666;48.898;9.182;2024-03-25T07:35:26;7.30;1.00
3308;DHT22;1666;48.898;9.182;2024-03-25T07:37:53;7.50;1.00
3308;DHT22;1666;48.898;9.182;2024-03-25T07:40:19;7.60;1.00
3308;DHT22;1666;48.898;9.182;2024-03-25T07:42:45;7.50;1.00
3308;DHT22;1666;48.898;9.182;2024-03-25T07:45:12;7.70;1.00
3308;DHT22;1666;48.898;9.182;2024-03-25T07:47:38;7.10;1.00
3308;DHT22;1666;48.898;9.182;2024-03-25T07:50:08;7.10;1.00
3308;DHT22;1666;48.898;9.182;2024-03-25T07:52:34;7.30;1.00
3308;DHT22;1666;48.898;9.182;2024-03-25T07:55:01;7.60;1.00
3308;DHT22;1666;48.898;9.182;2024-03-25T07:57:28;7.70;1.00
3308;DHT22;1666;48.898;9.182;2024-03-25T07:59:54;7.50;1.00
3308;DHT22;1666;48.898;9.182;2024-03-25T08:02:20;7.80;1.00
3308;DHT22;1666;48.898;9.182;2024-03-25T08:04:46;7.30;1.00
3308;DHT22;1666;48.898;9.182;2024-03-25T08:07:15;7.40;1.00
3308;DHT22;1666;48.898;9.182;2024-03-25T08:09:42;7.70;1.00
3308;DHT22;1666;48.898;9.182;2024-03-25T08:12:08;7.70;1.00
3308;DHT22;1666;48.898;9.182;2024-03-25T08:14:35;7.90;1.00
3308;DHT22;1666;48.898;9.182;2024-03-25T08:17:02;7.60;1.00
3308;DHT22;1666;48.898;9.182;2024-03-25T08:19:28;7.60;1.00
3308;DHT22;1666;48.898;9.182;2024-03-25T08:21:54;7.20;1.00
3308;DHT22;1666;48.898;9.182;2024-03-25T08:24:23;7.60;1.00
3308;DHT22;1666;48.898;9.182;2024-03-25T08:26:50;7.90;1.00
3308;DHT22;1666;48.898;9.182;2024-03-25T08:29:16;8.20;1.00
3308;DHT22;1666;48.898;9.182;2024-03-25T08:31:42;8.10;1.00
3308;DHT22;1666;48.898;9.182;2024-03-25T08:34:09;8.30;1.00
3308;DHT22;1666;48.898;9.182;2024-03-25T08:36:35;7.90;1.00
3308;DHT22;1666;48.898;9.182;2024-03-25T08:39:02;8.30;1.00
3308;DHT22;1666;48.898;9.182;2024-03-25T08:41:30;8.50;1.00
3308;DHT22;1666;48.898;9.182;2024-03-25T08:43:57;8.90;1.00
3308;DHT22;1666;48.898;9.182;2024-03-25T08:46:23;9.00;1.00
3308;DHT22;1666;48.898;9.182;2024-03-25T08:48:49;8.80;1.00
3308;DHT22;1666;48.898;9.182;2024-03-25T08:51:16;8.80;1.00
3308;DHT22;1666;48.898;9.182;2024-03-25T08:53:43;9.20;1.00
3308;DHT22;1666;48.898;9.182;2024-03-25T08:56:09;9.40;1.00
3308;DHT22;1666;48.898;9.182;2024-03-25T08:58:38;9.60;1.00
3308;DHT22;1666;48.898;9.182;2024-03-25T09:01:04;9.10;1.00
3308;DHT22;1666;48.898;9.182;2024-03-25T09:03:31;8.90;1.00
3308;DHT22;1666;48.898;9.182;2024-03-25T09:05:58;8.90;1.00
3308;DHT22;1666;48.898;9.182;2024-03-25T09:08:24;8.60;1.00
3308;DHT22;1666;48.898;9.182;2024-03-25T09:10:50;8.70;1.00
3308;DHT22;1666;48.898;9.182;2024-03-25T09:13:29;8.80;1.00
3308;DHT22;1666;48.898;9.182;2024-03-25T09:15:58;8.70;1.00
3308;DHT22;1666;48.898;9.182;2024-03-25T09:18:25;9.20;1.00
3308;DHT22;1666;48.898;9.182;2024-03-25T09:20:52;8.60;1.00
3308;DHT22;1666;48.898;9.182;2024-03-25T09:23:19;8.80;1.00
3308;DHT22;1666;48.898;9.182;2024-03-25T09:25:52;8.30;1.00
3308;DHT22;1666;48.898;9.182;2024-03-25T09:28:18;8.30;1.00
3308;DHT22;1666;48.898;9.182;2024-03-25T09:30:45;8.60;1.00
3308;DHT22;1666;48.898;9.182;2024-03-25T09:33:14;8.80;1.00
3308;DHT22;1666;48.898;9.182;2024-03-25T09:35:40;9.10;1.00
3308;DHT22;1666;48.898;9.182;2024-03-25T09:38:06;9.40;1.00
3308;DHT22;1666;48.898;9.182;2024-03-25T09:40:35;9.30;1.00
3308;DHT22;1666;48.898;9.182;2024-03-25T09:43:03;9.20;1.00
3308;DHT22;1666;48.898;9.182;2024-03-25T09:45:30;9.30;1.00
3308;DHT22;1666;48.898;9.182;2024-03-25T09:47:58;9.80;1.00
3308;DHT22;1666;48.898;9.182;2024-03-25T09:50:27;9.60;1.00
3308;DHT22;1666;48.898;9.182;2024-03-25T09:52:53;9.50;1.00
3308;DHT22;1666;48.898;9.182;2024-03-25T09:55:19;9.30;1.00
3308;DHT22;1666;48.898;9.182;2024-03-25T09:57:46;8.90;1.00
3308;DHT22;1666;48.898;9.182;2024-03-25T10:00:13;9.00;1.00
3308;DHT22;1666;48.898;9.182;2024-03-25T10:02:42;9.50;1.00
3308;DHT22;1666;48.898;9.182;2024-03-25T10:05:09;9.60;1.00
3308;DHT22;1666;48.898;9.182;2024-03-25T10:07:37;9.70;1.00
3308;DHT22;1666;48.898;9.182;2024-03-25T10:10:04;9.80;1.00
3308;DHT22;1666;48.898;9.182;2024-03-25T10:12:31;9.50;1.00
3308;DHT22;1666;48.898;9.182;2024-03-25T10:14:58;9.60;1.00
3308;DHT22;1666;48.898;9.182;2024-03-25T10:17:24;9.50;1.00
3308;DHT22;1666;48.898;9.182;2024-03-25T10:19:53;9.90;1.00
3308;DHT22;1666;48.898;9.182;2024-03-25T10:22:19;9.90;1.00
3308;DHT22;1666;48.898;9.182;2024-03-25T10:24:48;9.70;1.00
3308;DHT22;1666;48.898;9.182;2024-03-25T10:27:19;9.70;1.00
3308;DHT22;1666;48.898;9.182;2024-03-25T10:29:45;10.00;1.00
3308;DHT22;1666;48.898;9.182;2024-03-25T10:32:13;10.40;1.00
3308;DHT22;1666;48.898;9.182;2024-03-25T10:34:39;10.70;1.00
3308;DHT22;1666;48.898;9.182;2024-03-25T10:37:09;10.50;1.00
3308;DHT22;1666;48.898;9.182;2024-03-25T10:39:39;10.40;1.00
3308;DHT22;1666;48.898;9.182;2024-03-25T10:42:14;10.20;1.00
3308;DHT22;1666;48.898;9.182;2024-03-25T10:44:40;9.60;1.00
3308;DHT22;1666;48.898;9.182;2024-03-25T10:47:08;9.60;1.00
3308;DHT22;1666;48.898;9.182;2024-03-25T10:49:41;9.70;1.00
3308;DHT22;1666;48.898;9.182;2024-03-25T10:52:11;9.70;1.00
3308;DHT22;1666;48.898;9.182;2024-03-25T10:54:39;9.70;1.00
3308;DHT22;1666;48.898;9.182;2024-03-25T10:57:07;10.10;1.00
3308;DHT22;1666;48.898;9.182;2024-03-25T10:59:38;10.00;1.00
3308;DHT22;1666;48.898;9.182;2024-03-25T11:02:04;10.10;1.00
3308;DHT22;1666;48.898;9.182;2024-03-25T11:04:31;10.00;1.00
3308;DHT22;1666;48.898;9.182;2024-03-25T11:07:07;10.30;1.00
3308;DHT22;1666;48.898;9.182;2024-03-25T11:09:33;10.30;1.00
3308;DHT22;1666;48.898;9.182;2024-03-25T11:11:59;10.40;1.00
3308;DHT22;1666;48.898;9.182;2024-03-25T11:14:26;10.40;1.00
3308;DHT22;1666;48.898;9.182;2024-03-25T11:16:56;10.70;1.00
3308;DHT22;1666;48.898;9.182;2024-03-25T11:19:26;10.90;1.00
3308;DHT22;1666;48.898;9.182;2024-03-25T11:21:53;10.50;1.00
3308;DHT22;1666;48.898;9.182;2024-03-25T11:24:27;11.10;1.00
3308;DHT22;1666;48.898;9.182;2024-03-25T11:26:53;10.50;1.00
3308;DHT22;1666;48.898;9.182;2024-03-25T11:29:20;10.40;1.00
3308;DHT22;1666;48.898;9.182;2024-03-25T11:31:49;10.80;1.00
3308;DHT22;1666;48.898;9.182;2024-03-25T11:34:21;10.80;1.00
3308;DHT22;1666;48.898;9.182;2024-03-25T11:36:47;10.40;1.00
3308;DHT22;1666;48.898;9.182;2024-03-25T11:39:14;10.10;1.00
3308;DHT22;1666;48.898;9.182;2024-03-25T11:41:40;10.40;1.00
3308;DHT22;1666;48.898;9.182;2024-03-25T11:44:08;10.60;1.00
3308;DHT22;1666;48.898;9.182;2024-03-25T11:46:36;10.70;1.00
3308;DHT22;1666;48.898;9.182;2024-03-25T11:49:05;10.10;1.00
3308;DHT22;1666;48.898;9.182;2024-03-25T11:51:36;10.60;1.00
3308;DHT22;1666;48.898;9.182;2024-03-25T11:54:03;11.20;1.00
3308;DHT22;1666;48.898;9.182;2024-03-25T11:56:30;11.70;1.00
3308;DHT22;1666;48.898;9.182;2024-03-25T11:58:57;11.20;1.00
3308;DHT22;1666;48.898;9.182;2024-03-25T12:01:25;11.10;1.00
3308;DHT22;1666;48.898;9.182;2024-03-25T12:03:51;11.20;1.00
3308;DHT22;1666;48.898;9.182;2024-03-25T12:06:18;11.20;1.00
3308;DHT22;1666;48.898;9.182;2024-03-25T12:08:47;11.50;1.00
3308;DHT22;1666;48.898;9.182;2024-03-25T12:11:28;11.80;1.00
3308;DHT22;1666;48.898;9.182;2024-03-25T12:13:54;10.90;1.00
3308;DHT22;1666;48.898;9.182;2024-03-25T12:16:21;11.30;1.00
3308;DHT22;1666;48.898;9.182;2024-03-25T12:18:47;11.50;1.00
3308;DHT22;1666;48.898;9.182;2024-03-25T12:21:15;11.80;1.00
3308;DHT22;1666;48.898;9.182;2024-03-25T12:23:42;11.70;1.00
3308;DHT22;1666;48.898;9.182;2024-03-25T12:26:11;11.70;1.00
3308;DHT22;1666;48.898;9.182;2024-03-25T12:28:37;11.60;1.00
3308;DHT22;1666;48.898;9.182;2024-03-25T12:31:08;12.00;1.00
3308;DHT22;1666;48.898;9.182;2024-03-25T12:33:40;12.10;1.00
3308;DHT22;1666;48.898;9.182;2024-03-25T12:36:07;11.50;1.00
3308;DHT22;1666;48.898;9.182;2024-03-25T12:38:33;11.20;1.00
3308;DHT22;1666;48.898;9.182;2024-03-25T12:41:04;11.10;1.00
3308;DHT22;1666;48.898;9.182;2024-03-25T12:43:34;10.70;1.00
3308;DHT22;1666;48.898;9.182;2024-03-25T12:46:02;11.00;1.00
3308;DHT22;1666;48.898;9.182;2024-03-25T12:48:29;11.30;1.00
3308;DHT22;1666;48.898;9.182;2024-03-25T12:50:55;11.50;1.00
3308;DHT22;1666;48.898;9.182;2024-03-25T12:53:22;11.50;1.00
3308;DHT22;1666;48.898;9.182;2024-03-25T12:55:48;11.60;1.00
3308;DHT22;1666;48.898;9.182;2024-03-25T12:58:15;11.40;1.00
3308;DHT22;1666;48.898;9.182;2024-03-25T13:00:44;11.80;1.00
3308;DHT22;1666;48.898;9.182;2024-03-25T13:03:10;12.00;1.00
3308;DHT22;1666;48.898;9.182;2024-03-25T13:05:38;11.80;1.00
3308;DHT22;1666;48.898;9.182;2024-03-25T13:08:05;11.60;1.00
3308;DHT22;1666;48.898;9.182;2024-03-25T13:10:32;11.40;1.00
3308;DHT22;1666;48.898;9.182;2024-03-25T13:13:01;11.50;1.00
3308;DHT22;1666;48.898;9.182;2024-03-25T13:15:27;11.80;1.00
3308;DHT22;1666;48.898;9.182;2024-03-25T13:17:57;12.10;1.00
3308;DHT22;1666;48.898;9.182;2024-03-25T13:20:23;11.50;1.00
3308;DHT22;1666;48.898;9.182;2024-03-25T13:22:53;11.00;1.00
3308;DHT22;1666;48.898;9.182;2024-03-25T13:25:20;11.10;1.00
3308;DHT22;1666;48.898;9.182;2024-03-25T13:27:46;11.20;1.00
3308;DHT22;1666;48.898;9.182;2024-03-25T13:30:13;11.10;1.00
3308;DHT22;1666;48.898;9.182;2024-03-25T13:32:39;11.30;1.00
3308;DHT22;1666;48.898;9.182;2024-03-25T13:35:08;11.40;1.00
3308;DHT22;1666;48.898;9.182;2024-03-25T13:37:35;11.80;1.00
3308;DHT22;1666;48.898;9.182;2024-03-25T13:40:01;11.80;1.00
3308;DHT22;1666;48.898;9.182;2024-03-25T13:42:27;11.80;1.00
3308;DHT22;1666;48.898;9.182;2024-03-25T13:44:54;11.80;1.00
3308;DHT22;1666;48.898;9.182;2024-03-25T13:47:20;11.70;1.00
3308;DHT22;1666;48.898;9.182;2024-03-25T13:49:46;11.50;1.00
3308;DHT22;1666;48.898;9.182;2024-03-25T13:52:15;11.60;1.00
3308;DHT22;1666;48.898;9.182;2024-03-25T13:54:42;11.70;1.00
3308;DHT22;1666;48.898;9.182;2024-03-25T13:57:08;11.60;1.00
3308;DHT22;1666;48.898;9.182;2024-03-25T13:59:35;11.60;1.00
3308;DHT22;1666;48.898;9.182;2024-03-25T14:02:01;11.60;1.00
3308;DHT22;1666;48.898;9.182;2024-03-25T14:04:27;11.80;1.00
3308;DHT22;1666;48.898;9.182;2024-03-25T14:06:54;12.00;1.00
3308;DHT22;1666;48.898;9.182;2024-03-25T14:09:26;11.70;1.00
3308;DHT22;1666;48.898;9.182;2024-03-25T14:11:53;11.60;1.00
3308;DHT22;1666;48.898;9.182;2024-03-25T14:14:20;11.70;1.00
3308;DHT22;1666;48.898;9.182;2024-03-25T14:16:46;12.00;1.00
3308;DHT22;1666;48.898;9.182;2024-03-25T14:19:13;12.30;1.00
3308;DHT22;1666;48.898;9.182;2024-03-25T14:21:39;12.10;1.00
3308;DHT22;1666;48.898;9.182;2024-03-25T14:24:06;12.20;1.00
3308;DHT22;1666;48.898;9.182;2024-03-25T14:26:36;12.30;1.00
3308;DHT22;1666;48.898;9.182;2024-03-25T14:29:02;12.40;1.00
3308;DHT22;1666;48.898;9.182;2024-03-25T14:31:28;12.10;1.00
3308;DHT22;1666;48.898;9.182;2024-03-25T14:33:55;11.80;1.00
3308;DHT22;1666;48.898;9.182;2024-03-25T14:36:21;11.80;1.00
3308;DHT22;1666;48.898;9.182;2024-03-25T14:38:48;12.10;1.00
3308;DHT22;1666;48.898;9.182;2024-03-25T14:41:19;11.80;1.00
3308;DHT22;1666;48.898;9.182;2024-03-25T14:43:49;11.70;1.00
3308;DHT22;1666;48.898;9.182;2024-03-25T14:46:15;11.70;1.00
3308;DHT22;1666;48.898;9.182;2024-03-25T14:48:41;11.90;1.00
3308;DHT22;1666;48.898;9.182;2024-03-25T14:51:08;12.00;1.00
3308;DHT22;1666;48.898;9.182;2024-03-25T14:53:34;12.10;1.00
3308;DHT22;1666;48.898;9.182;2024-03-25T14:56:01;12.40;1.00
3308;DHT22;1666;48.898;9.182;2024-03-25T14:58:27;12.30;1.00
3308;DHT22;1666;48.898;9.182;2024-03-25T15:00:56;12.50;1.00
3308;DHT22;1666;48.898;9.182;2024-03-25T15:03:23;12.40;1.00
3308;DHT22;1666;48.898;9.182;2024-03-25T15:05:50;12.30;1.00
3308;DHT22;1666;48.898;9.182;2024-03-25T15:08:16;12.40;1.00
3308;DHT22;1666;48.898;9.182;2024-03-25T15:10:42;12.10;1.00
3308;DHT22;1666;48.898;9.182;2024-03-25T15:13:11;12.00;1.00
3308;DHT22;1666;48.898;9.182;2024-03-25T15:15:39;12.00;1.00
3308;DHT22;1666;48.898;9.182;2024-03-25T15:18:08;11.90;1.00
3308;DHT22;1666;48.898;9.182;2024-03-25T15:20:34;12.00;1.00
3308;DHT22;1666;48.898;9.182;2024-03-25T15:23:01;12.20;1.00
3308;DHT22;1666;48.898;9.182;2024-03-25T15:25:27;12.20;1.00
3308;DHT22;1666;48.898;9.182;2024-03-25T15:27:53;12.00;1.00
3308;DHT22;1666;48.898;9.182;2024-03-25T15:30:20;11.90;1.00
3308;DHT22;1666;48.898;9.182;2024-03-25T15:32:46;11.80;1.00
3308;DHT22;1666;48.898;9.182;2024-03-25T15:35:16;11.70;1.00
3308;DHT22;1666;48.898;9.182;2024-03-25T15:37:42;11.80;1.00
3308;DHT22;1666;48.898;9.182;2024-03-25T15:40:09;11.90;1.00
3308;DHT22;1666;48.898;9.182;2024-03-25T15:42:36;11.90;1.00
3308;DHT22;1666;48.898;9.182;2024-03-25T15:45:03;11.90;1.00
3308;DHT22;1666;48.898;9.182;2024-03-25T15:47:29;12.10;1.00
3308;DHT22;1666;48.898;9.182;2024-03-25T15:49:56;11.90;1.00
3308;DHT22;1666;48.898;9.182;2024-03-25T15:52:25;12.10;1.00
3308;DHT22;1666;48.898;9.182;2024-03-25T15:54:51;12.00;1.00
3308;DHT22;1666;48.898;9.182;2024-03-25T15:57:17;12.00;1.00
3308;DHT22;1666;48.898;9.182;2024-03-25T15:59:44;11.90;1.00
3308;DHT22;1666;48.898;9.182;2024-03-25T16:02:10;11.90;1.00
3308;DHT22;1666;48.898;9.182;2024-03-25T16:04:37;11.90;1.00
3308;DHT22;1666;48.898;9.182;2024-03-25T16:07:03;11.80;1.00
3308;DHT22;1666;48.898;9.182;2024-03-25T16:09:32;12.00;1.00
3308;DHT22;1666;48.898;9.182;2024-03-25T16:12:00;11.80;1.00
3308;DHT22;1666;48.898;9.182;2024-03-25T16:14:31;11.80;1.00
3308;DHT22;1666;48.898;9.182;2024-03-25T16:16:58;11.80;1.00
3308;DHT22;1666;48.898;9.182;2024-03-25T16:19:25;11.80;1.00
3308;DHT22;1666;48.898;9.182;2024-03-25T16:21:52;11.80;1.00
3308;DHT22;1666;48.898;9.182;2024-03-25T16:24:18;11.70;1.00
3308;DHT22;1666;48.898;9.182;2024-03-25T16:26:47;11.70;1.00
3308;DHT22;1666;48.898;9.182;2024-03-25T16:29:13;11.70;1.00